createdAt,value
2018-12-16T00:01:17.529Z,17.67
2018-12-16T00:03:45.011Z,17.73
2018-12-16T00:06:12.650Z,17.20
2018-12-16T00:08:40.095Z,18.37
2018-12-16T00:11:07.563Z,18.23
2018-12-16T00:13:35.132Z,16.33
2018-12-16T00:16:02.597Z,18.50
2018-12-16T00:18:30.089Z,17.27
2018-12-16T00:20:57.531Z,17.00
2018-12-16T00:23:24.993Z,17.33
2018-12-16T00:25:52.499Z,16.07
2018-12-16T00:28:20.007Z,16.80
2018-12-16T00:30:47.448Z,18.67
2018-12-16T00:33:14.908Z,17.90
2018-12-16T00:35:42.379Z,17.57
2018-12-16T00:38:09.889Z,18.30
2018-12-16T00:40:37.350Z,18.50
2018-12-16T00:43:04.805Z,19.97
2018-12-16T00:45:32.268Z,19.20
2018-12-16T00:47:59.741Z,17.57
2018-12-16T00:50:27.388Z,19.13
2018-12-16T00:52:54.859Z,18.50
2018-12-16T00:55:22.361Z,18.70
2018-12-16T00:57:49.820Z,17.43
2018-12-16T01:00:17.657Z,17.27
2018-12-16T01:02:45.097Z,19.10
2018-12-16T01:05:12.557Z,18.90
2018-12-16T01:07:39.990Z,19.00
2018-12-16T01:10:08.703Z,19.27
2018-12-16T01:12:36.149Z,18.33
2018-12-16T01:15:04.048Z,18.83
2018-12-16T01:17:31.524Z,17.77
2018-12-16T01:19:58.998Z,18.80
2018-12-16T01:22:26.553Z,20.17
2018-12-16T01:24:54.034Z,20.80
2018-12-16T01:27:21.510Z,17.43
2018-12-16T01:29:48.987Z,19.70
2018-12-16T01:32:16.429Z,17.60
2018-12-16T01:34:43.938Z,17.80
2018-12-16T01:37:11.493Z,18.60
2018-12-16T01:39:38.999Z,18.10
2018-12-16T01:42:06.616Z,18.10
2018-12-16T01:44:34.069Z,17.40
2018-12-16T01:47:01.552Z,15.93
2018-12-16T01:49:29.064Z,18.37
2018-12-16T01:51:56.548Z,18.10
2018-12-16T01:54:24.012Z,17.80
2018-12-16T01:56:51.487Z,19.37
2018-12-16T01:59:18.969Z,17.20
2018-12-16T02:01:52.213Z,15.87
2018-12-16T02:04:19.675Z,18.03
2018-12-16T02:06:47.220Z,16.57
2018-12-16T02:09:14.715Z,17.47
2018-12-16T02:11:42.308Z,18.50
2018-12-16T02:14:09.740Z,17.70
2018-12-16T02:16:37.274Z,16.33
2018-12-16T02:19:04.754Z,15.73
2018-12-16T02:21:32.192Z,15.30
2018-12-16T02:23:59.740Z,18.00
2018-12-16T02:26:27.240Z,18.60
2018-12-16T02:28:54.809Z,17.17
2018-12-16T02:31:22.252Z,17.67
2018-12-16T02:33:49.704Z,16.67
2018-12-16T02:36:17.187Z,16.70
2018-12-16T02:38:44.803Z,15.30
2018-12-16T02:41:12.252Z,17.60
2018-12-16T02:43:39.826Z,17.20
2018-12-16T02:46:07.395Z,16.73
2018-12-16T02:48:34.876Z,16.10
2018-12-16T02:51:02.379Z,17.03
2018-12-16T02:53:29.843Z,17.23
2018-12-16T02:55:57.305Z,17.57
2018-12-16T02:58:24.756Z,18.20
2018-12-16T03:00:53.099Z,16.10
2018-12-16T03:03:20.640Z,18.73
2018-12-16T03:05:48.122Z,17.50
2018-12-16T03:08:15.615Z,17.60
2018-12-16T03:10:43.076Z,16.97
2018-12-16T03:13:10.530Z,17.83
2018-12-16T03:15:38.023Z,16.90
2018-12-16T03:18:05.461Z,15.50
2018-12-16T03:20:32.957Z,17.80
2018-12-16T03:23:00.493Z,15.43
2018-12-16T03:25:28.066Z,17.03
2018-12-16T03:27:55.534Z,16.90
2018-12-16T03:30:23.467Z,16.60
2018-12-16T03:32:51.123Z,16.87
2018-12-16T03:35:18.697Z,16.90
2018-12-16T03:37:46.130Z,18.33
2018-12-16T03:40:13.601Z,16.93
2018-12-16T03:42:41.096Z,15.67
2018-12-16T03:45:08.716Z,16.90
2018-12-16T03:47:36.229Z,17.77
2018-12-16T03:50:04.247Z,15.80
2018-12-16T03:52:31.744Z,16.43
2018-12-16T03:54:59.196Z,15.20
2018-12-16T03:57:26.659Z,15.53
2018-12-16T03:59:54.115Z,16.03
2018-12-16T04:02:22.349Z,17.10
2018-12-16T04:04:49.792Z,14.90
2018-12-16T04:07:17.368Z,15.67
2018-12-16T04:09:44.863Z,14.80
2018-12-16T04:12:12.351Z,15.53
2018-12-16T04:14:41.313Z,15.47
2018-12-16T04:17:09.402Z,17.50
2018-12-16T04:19:36.836Z,14.20
2018-12-16T04:22:04.324Z,15.53
2018-12-16T04:24:31.777Z,16.00
2018-12-16T04:26:59.246Z,15.90
2018-12-16T04:29:26.695Z,15.90
2018-12-16T04:31:54.449Z,14.67
2018-12-16T04:34:21.942Z,14.57
2018-12-16T04:36:49.512Z,15.73
2018-12-16T04:39:16.979Z,15.70
2018-12-16T04:41:44.449Z,15.90
2018-12-16T04:44:11.952Z,15.87
2018-12-16T04:46:39.435Z,16.60
2018-12-16T04:49:06.884Z,18.33
2018-12-16T04:51:34.367Z,17.53
2018-12-16T04:54:02.031Z,18.10
2018-12-16T04:56:29.542Z,18.10
2018-12-16T04:58:57.087Z,19.03
2018-12-16T05:01:24.523Z,18.27
2018-12-16T05:03:52.054Z,18.20
2018-12-16T05:06:19.718Z,19.23
2018-12-16T05:08:47.331Z,19.23
2018-12-16T05:11:14.796Z,18.97
2018-12-16T05:13:42.272Z,20.67
2018-12-16T05:16:09.729Z,19.57
2018-12-16T05:18:37.312Z,20.10
2018-12-16T05:21:04.835Z,20.17
2018-12-16T05:23:32.346Z,20.27
2018-12-16T05:25:59.792Z,19.80
2018-12-16T05:28:27.265Z,18.63
2018-12-16T05:30:54.753Z,21.00
2018-12-16T05:33:22.216Z,20.20
2018-12-16T05:35:49.725Z,21.30
2018-12-16T05:38:17.180Z,21.67
2018-12-16T05:40:44.734Z,21.30
2018-12-16T05:43:12.201Z,20.23
2018-12-16T05:45:39.665Z,20.37
2018-12-16T05:48:07.141Z,22.00
2018-12-16T05:50:34.593Z,20.67
2018-12-16T05:53:02.091Z,20.73
2018-12-16T05:55:29.594Z,19.67
2018-12-16T05:57:57.046Z,21.83
2018-12-16T06:00:24.491Z,21.30
2018-12-16T06:02:52.048Z,18.80
2018-12-16T06:05:19.517Z,20.73
2018-12-16T06:07:46.992Z,20.40
2018-12-16T06:10:14.448Z,20.40
2018-12-16T06:12:41.911Z,19.67
2018-12-16T06:15:09.439Z,21.07
2018-12-16T06:17:36.953Z,19.63
2018-12-16T06:20:04.841Z,21.97
2018-12-16T06:22:32.292Z,21.17
2018-12-16T06:24:59.756Z,21.53
2018-12-16T06:27:27.210Z,20.43
2018-12-16T06:29:54.988Z,22.97
2018-12-16T06:32:23.180Z,21.77
2018-12-16T06:34:50.670Z,22.30
2018-12-16T06:37:18.150Z,23.33
2018-12-16T06:39:45.624Z,22.10
2018-12-16T06:42:13.121Z,22.10
2018-12-16T06:44:40.589Z,21.40
2018-12-16T06:47:08.057Z,22.00
2018-12-16T06:49:35.534Z,21.10
2018-12-16T06:52:03.001Z,23.10
2018-12-16T06:54:31.053Z,21.30
2018-12-16T06:56:58.627Z,21.50
2018-12-16T06:59:26.101Z,22.47
2018-12-16T07:01:53.640Z,21.37
2018-12-16T07:04:21.155Z,27.97
2018-12-16T07:06:48.620Z,20.80
2018-12-16T07:09:16.097Z,23.93
2018-12-16T07:11:43.896Z,22.40
2018-12-16T07:14:11.345Z,22.23
2018-12-16T07:16:38.840Z,23.37
2018-12-16T07:19:06.288Z,24.30
2018-12-16T07:21:33.813Z,22.80
2018-12-16T07:24:01.399Z,23.63
2018-12-16T07:26:28.886Z,23.07
2018-12-16T07:28:56.324Z,20.70
2018-12-16T07:31:23.818Z,22.07
2018-12-16T07:33:51.333Z,25.37
2018-12-16T07:36:18.801Z,23.00
2018-12-16T07:38:46.283Z,23.17
2018-12-16T07:41:13.770Z,24.90
2018-12-16T07:43:41.284Z,24.53
2018-12-16T07:46:08.782Z,23.33
2018-12-16T07:48:36.229Z,23.73
2018-12-16T07:51:03.754Z,23.47
2018-12-16T07:53:31.234Z,23.40
2018-12-16T07:55:58.692Z,21.87
2018-12-16T07:58:26.243Z,28.47
2018-12-16T08:00:53.751Z,27.52
2018-12-16T08:03:21.267Z,29.27
2018-12-16T08:05:48.864Z,28.90
2018-12-16T08:08:16.327Z,29.80
2018-12-16T08:10:43.947Z,28.50
2018-12-16T08:13:11.427Z,30.95
2018-12-16T08:15:38.867Z,29.52
2018-12-16T08:18:06.434Z,29.37
2018-12-16T08:20:33.891Z,28.52
2018-12-16T08:23:01.365Z,27.90
2018-12-16T08:25:28.859Z,28.35
2018-12-16T08:27:56.340Z,27.62
2018-12-16T08:30:23.898Z,28.20
2018-12-16T08:32:51.360Z,26.73
2018-12-16T08:35:18.820Z,27.35
2018-12-16T08:37:46.328Z,27.45
2018-12-16T08:40:13.795Z,28.77
2018-12-16T08:42:41.274Z,27.30
2018-12-16T08:45:08.708Z,28.20
2018-12-16T08:47:36.219Z,28.20
2018-12-16T08:50:04.066Z,27.90
2018-12-16T08:52:31.599Z,28.60
2018-12-16T08:54:59.051Z,28.30
2018-12-16T08:57:26.723Z,26.97
2018-12-16T08:59:54.177Z,28.07
2018-12-16T09:02:21.823Z,28.80
2018-12-16T09:04:49.305Z,28.67
2018-12-16T09:07:16.766Z,29.60
2018-12-16T09:09:44.569Z,29.27
2018-12-16T09:12:12.073Z,29.25
2018-12-16T09:14:39.926Z,29.07
2018-12-16T09:17:07.437Z,28.98
2018-12-16T09:19:35.010Z,27.05
2018-12-16T09:22:02.479Z,27.73
2018-12-16T09:24:37.047Z,29.20
2018-12-16T09:26:59.449Z,30.43
2018-12-16T09:29:26.929Z,30.27
2018-12-16T09:31:54.379Z,30.43
2018-12-16T09:34:22.033Z,30.85
2018-12-16T09:36:49.604Z,29.87
2018-12-16T09:39:17.222Z,31.52
2018-12-16T09:41:45.603Z,30.45
2018-12-16T09:44:13.130Z,30.53
2018-12-16T09:46:40.598Z,31.90
2018-12-16T09:49:08.052Z,31.40
2018-12-16T09:51:35.523Z,32.80
2018-12-16T09:54:03.116Z,33.00
2018-12-16T09:56:30.730Z,33.20
2018-12-16T09:58:58.212Z,32.13
2018-12-16T10:01:25.840Z,32.40
2018-12-16T10:03:53.295Z,31.75
2018-12-16T10:06:20.783Z,32.45
2018-12-16T10:08:48.249Z,32.30
2018-12-16T10:11:15.850Z,32.15
2018-12-16T10:13:43.329Z,31.30
2018-12-16T10:16:10.831Z,30.80
2018-12-16T10:18:38.308Z,29.02
2018-12-16T10:21:05.819Z,29.27
2018-12-16T10:23:33.311Z,31.55
2018-12-16T10:26:00.803Z,30.77
2018-12-16T10:28:28.302Z,31.35
2018-12-16T10:30:55.788Z,30.88
2018-12-16T10:33:23.246Z,30.48
2018-12-16T10:35:50.709Z,30.32
2018-12-16T10:38:18.192Z,30.57
2018-12-16T10:40:45.686Z,30.62
2018-12-16T10:43:13.143Z,27.85
2018-12-16T10:45:40.614Z,27.22
2018-12-16T10:48:08.090Z,28.27
2018-12-16T10:50:35.551Z,28.23
2018-12-16T10:53:03.029Z,26.00
2018-12-16T10:55:30.473Z,27.22
2018-12-16T10:57:57.936Z,27.60
2018-12-16T11:00:31.125Z,24.37
2018-12-16T11:02:58.601Z,25.35
2018-12-16T11:05:27.610Z,25.52
2018-12-16T11:07:55.081Z,25.45
2018-12-16T11:10:22.597Z,25.50
2018-12-16T11:12:50.150Z,24.45
2018-12-16T11:15:17.665Z,25.43
2018-12-16T11:17:45.133Z,23.40
2018-12-16T11:20:12.701Z,23.98
2018-12-16T11:22:40.170Z,25.35
2018-12-16T11:25:09.112Z,24.30
2018-12-16T11:27:36.578Z,25.68
2018-12-16T11:30:05.896Z,25.72
2018-12-16T11:32:33.376Z,25.17
2018-12-16T11:35:00.856Z,24.40
2018-12-16T11:37:28.291Z,24.00
2018-12-16T11:39:55.794Z,23.95
2018-12-16T11:42:23.261Z,24.30
2018-12-16T11:44:50.754Z,22.85
2018-12-16T11:47:18.209Z,22.20
2018-12-16T11:49:45.705Z,23.00
2018-12-16T11:52:13.176Z,23.00
2018-12-16T11:54:40.690Z,23.22
2018-12-16T11:57:08.144Z,22.45
2018-12-16T11:59:35.626Z,23.62
2018-12-16T12:02:03.100Z,25.40
2018-12-16T12:04:30.565Z,25.00
2018-12-16T12:06:58.071Z,24.77
2018-12-16T12:09:25.612Z,25.55
2018-12-16T12:11:53.103Z,25.32
2018-12-16T12:14:20.582Z,25.10
2018-12-16T12:16:48.051Z,25.57
2018-12-16T12:19:15.494Z,24.40
2018-12-16T12:21:43.005Z,24.15
2018-12-16T12:24:10.446Z,25.90
2018-12-16T12:26:37.923Z,25.27
2018-12-16T12:29:05.417Z,25.40
2018-12-16T12:31:32.926Z,25.30
2018-12-16T12:34:00.421Z,24.52
2018-12-16T12:36:27.908Z,26.10
2018-12-16T12:38:55.373Z,23.60
2018-12-16T12:41:22.850Z,23.40
2018-12-16T12:43:50.329Z,25.45
2018-12-16T12:46:17.920Z,25.55
2018-12-16T12:48:45.425Z,24.67
2018-12-16T12:51:12.975Z,25.10
2018-12-16T12:53:40.536Z,24.30
2018-12-16T12:56:07.999Z,25.65
2018-12-16T12:58:35.481Z,25.02
2018-12-16T13:01:02.934Z,24.92
2018-12-16T13:03:30.421Z,24.90
2018-12-16T13:05:57.890Z,25.37
2018-12-16T13:08:25.351Z,26.57
2018-12-16T13:10:52.852Z,25.50
2018-12-16T13:13:20.316Z,25.00
2018-12-16T13:15:47.790Z,26.15
2018-12-16T13:18:15.288Z,24.85
2018-12-16T13:20:42.764Z,26.85
2018-12-16T13:23:10.237Z,26.73
2018-12-16T13:25:49.681Z,26.83
2018-12-16T13:28:17.169Z,27.20
2018-12-16T13:30:44.643Z,28.45
2018-12-16T13:33:12.135Z,25.82
2018-12-16T13:35:39.838Z,28.80
2018-12-16T13:38:07.285Z,26.57
2018-12-16T13:40:34.770Z,26.77
2018-12-16T13:43:02.250Z,26.10
2018-12-16T13:45:29.819Z,26.90
2018-12-16T13:47:57.418Z,26.62
2018-12-16T13:50:24.929Z,27.05
2018-12-16T13:52:52.505Z,28.95
2018-12-16T13:55:20.035Z,27.90
2018-12-16T13:57:47.913Z,29.25
2018-12-16T14:00:15.459Z,28.15
2018-12-16T14:02:42.932Z,28.30
2018-12-16T14:05:10.453Z,29.05
2018-12-16T14:07:37.985Z,27.95
2018-12-16T14:10:06.519Z,28.17
2018-12-16T14:12:33.999Z,28.83
2018-12-16T14:15:01.450Z,29.57
2018-12-16T14:17:28.949Z,27.52
2018-12-16T14:19:56.413Z,29.32
2018-12-16T14:22:23.906Z,28.80
2018-12-16T14:24:51.376Z,27.77
2018-12-16T14:27:18.865Z,28.70
2018-12-16T14:29:46.338Z,28.83
2018-12-16T14:32:13.835Z,28.53
2018-12-16T14:34:41.414Z,26.87
2018-12-16T14:37:08.992Z,29.07
2018-12-16T14:39:36.508Z,28.15
2018-12-16T14:42:04.084Z,28.52
2018-12-16T14:44:31.553Z,28.12
2018-12-16T14:46:59.076Z,28.57
2018-12-16T14:49:26.568Z,28.35
2018-12-16T14:51:54.071Z,28.05
2018-12-16T14:54:21.587Z,29.77
2018-12-16T14:56:49.039Z,28.98
2018-12-16T14:59:16.530Z,28.45
2018-12-16T15:01:43.986Z,28.42
2018-12-16T15:04:11.476Z,27.35
2018-12-16T15:06:38.983Z,27.55
2018-12-16T15:09:06.688Z,28.70
2018-12-16T15:11:34.264Z,28.80
2018-12-16T15:14:01.715Z,27.75
2018-12-16T15:16:29.214Z,29.87
2018-12-16T15:18:56.738Z,29.10
2018-12-16T15:21:24.236Z,28.50
2018-12-16T15:23:51.741Z,27.60
2018-12-16T15:26:19.252Z,28.65
2018-12-16T15:28:46.745Z,28.95
2018-12-16T15:31:14.237Z,28.00
2018-12-16T15:33:41.706Z,28.70
2018-12-16T15:36:09.184Z,29.60
2018-12-16T15:38:36.651Z,29.72
2018-12-16T15:41:04.144Z,28.98
2018-12-16T15:43:31.649Z,28.00
2018-12-16T15:45:59.118Z,27.60
2018-12-16T15:48:26.639Z,29.07
2018-12-16T15:50:54.155Z,30.60
2018-12-16T15:53:21.647Z,29.27
2018-12-16T15:55:49.205Z,29.13
2018-12-16T15:58:16.680Z,30.40
2018-12-16T16:00:44.157Z,29.70
2018-12-16T16:03:11.650Z,29.63
2018-12-16T16:05:39.247Z,28.52
2018-12-16T16:08:06.711Z,29.40
2018-12-16T16:10:34.181Z,31.15
2018-12-16T16:13:01.640Z,31.00
2018-12-16T16:15:29.100Z,28.90
2018-12-16T16:17:56.585Z,28.93
2018-12-16T16:20:24.090Z,29.95
2018-12-16T16:22:51.567Z,30.80
2018-12-16T16:25:19.052Z,30.55
2018-12-16T16:27:46.566Z,31.90
2018-12-16T16:30:14.022Z,29.65
2018-12-16T16:32:41.519Z,31.12
2018-12-16T16:35:08.995Z,30.32
2018-12-16T16:37:36.961Z,30.02
2018-12-16T16:40:05.321Z,29.50
2018-12-16T16:42:32.798Z,29.27
2018-12-16T16:45:00.283Z,28.90
2018-12-16T16:47:27.762Z,28.30
2018-12-16T16:49:55.347Z,30.70
2018-12-16T16:52:22.852Z,30.32
2018-12-16T16:54:50.336Z,30.32
2018-12-16T16:57:17.822Z,29.37
2018-12-16T16:59:45.325Z,29.42
2018-12-16T17:02:12.848Z,28.32
2018-12-16T17:04:40.318Z,28.50
2018-12-16T17:07:07.809Z,31.00
2018-12-16T17:09:35.403Z,30.00
2018-12-16T17:12:02.851Z,33.53
2018-12-16T17:14:30.341Z,33.88
2018-12-16T17:16:57.897Z,39.67
2018-12-16T17:19:25.780Z,45.98
2018-12-16T17:21:53.436Z,43.75
2018-12-16T17:24:21.491Z,35.25
2018-12-16T17:26:49.010Z,33.30
2018-12-16T17:29:16.518Z,37.93
2018-12-16T17:31:44.540Z,40.28
2018-12-16T17:35:01.057Z,38.20
2018-12-16T17:37:28.520Z,34.77
2018-12-16T17:39:55.997Z,34.48
2018-12-16T17:42:23.483Z,32.42
2018-12-16T17:44:50.981Z,33.60
2018-12-16T17:47:18.471Z,33.83
2018-12-16T17:49:45.942Z,33.98
2018-12-16T17:52:13.382Z,33.08
2018-12-16T17:54:40.903Z,32.95
2018-12-16T17:57:08.380Z,30.23
2018-12-16T17:59:35.846Z,32.67
2018-12-16T18:02:03.806Z,34.43
2018-12-16T18:04:31.235Z,37.28
2018-12-16T18:06:58.708Z,35.13
2018-12-16T18:09:26.241Z,31.57
2018-12-16T18:11:53.798Z,32.05
2018-12-16T18:14:21.235Z,32.23
2018-12-16T18:16:48.740Z,30.65
2018-12-16T18:19:16.208Z,32.08
2018-12-16T18:21:44.387Z,30.25
2018-12-16T18:24:11.878Z,31.52
2018-12-16T18:26:44.073Z,29.90
2018-12-16T18:29:08.860Z,31.68
2018-12-16T18:31:36.421Z,30.73
2018-12-16T18:34:04.253Z,30.57
2018-12-16T18:36:31.744Z,31.07
2018-12-16T18:38:59.231Z,31.85
2018-12-16T18:41:26.720Z,32.10
2018-12-16T18:43:54.345Z,30.52
2018-12-16T18:46:21.835Z,33.95
2018-12-16T18:48:49.348Z,30.80
2018-12-16T18:51:16.835Z,32.80
2018-12-16T18:53:44.290Z,31.75
2018-12-16T18:56:11.795Z,32.25
2018-12-16T18:58:39.298Z,32.13
2018-12-16T19:01:06.869Z,30.80
2018-12-16T19:03:34.471Z,34.08
2018-12-16T19:06:02.566Z,36.75
2018-12-16T19:08:30.087Z,35.08
2018-12-16T19:10:57.681Z,30.75
2018-12-16T19:13:25.139Z,32.67
2018-12-16T19:15:52.666Z,33.48
2018-12-16T19:18:20.494Z,32.63
2018-12-16T19:20:48.005Z,32.93
2018-12-16T19:23:15.490Z,33.45
2018-12-16T19:25:43.068Z,31.83
2018-12-16T19:28:10.556Z,31.65
2018-12-16T19:30:38.112Z,30.35
2018-12-16T19:33:05.565Z,28.92
2018-12-16T19:35:33.073Z,27.45
2018-12-16T19:38:01.675Z,28.63
2018-12-16T19:40:30.122Z,30.97
2018-12-16T19:42:57.607Z,29.50
2018-12-16T19:45:25.106Z,28.05
2018-12-16T19:47:52.679Z,27.73
2018-12-16T19:50:20.237Z,30.47
2018-12-16T19:52:47.763Z,38.60
2018-12-16T19:55:16.405Z,58.75
2018-12-16T19:57:43.934Z,35.52
2018-12-16T20:00:11.953Z,32.20
2018-12-16T20:02:39.820Z,35.45
2018-12-16T20:05:09.950Z,35.33
2018-12-16T20:07:37.664Z,36.75
2018-12-16T20:10:05.698Z,38.80
2018-12-16T20:12:33.197Z,44.08
2018-12-16T20:15:00.686Z,41.68
2018-12-16T20:17:28.313Z,40.55
2018-12-16T20:19:55.797Z,37.83
2018-12-16T20:22:23.352Z,34.43
2018-12-16T20:24:50.836Z,36.15
2018-12-16T20:27:18.502Z,37.10
2018-12-16T20:29:46.030Z,35.83
2018-12-16T20:32:13.571Z,34.90
2018-12-16T20:34:41.102Z,33.80
2018-12-16T20:37:08.559Z,31.05
2018-12-16T20:39:36.040Z,28.57
2018-12-16T20:42:03.501Z,29.27
2018-12-16T20:44:31.128Z,28.40
2018-12-16T20:46:58.618Z,30.05
2018-12-16T20:49:26.144Z,29.20
2018-12-16T20:51:53.617Z,29.90
2018-12-16T20:54:21.235Z,30.02
2018-12-16T20:56:48.711Z,29.85
2018-12-16T20:59:16.294Z,30.52
2018-12-16T21:01:43.946Z,30.60
2018-12-16T21:04:11.426Z,31.30
2018-12-16T21:06:38.888Z,30.82
2018-12-16T21:09:06.453Z,29.35
2018-12-16T21:11:39.606Z,31.40
2018-12-16T21:14:12.953Z,30.57
2018-12-16T21:16:46.051Z,30.40
2018-12-16T21:19:14.068Z,29.65
2018-12-16T21:21:41.707Z,30.10
2018-12-16T21:24:09.291Z,29.45
2018-12-16T21:26:36.849Z,28.52
2018-12-16T21:29:04.321Z,28.90
2018-12-16T21:31:31.840Z,29.00
2018-12-16T21:33:59.301Z,26.80
2018-12-16T21:36:26.777Z,26.68
2018-12-16T21:38:54.234Z,26.50
2018-12-16T21:41:21.726Z,27.35
2018-12-16T21:43:49.258Z,26.20
2018-12-16T21:46:16.752Z,25.57
2018-12-16T21:48:44.209Z,26.52
2018-12-16T21:51:11.692Z,27.25
2018-12-16T21:53:39.149Z,26.68
2018-12-16T21:56:06.608Z,28.00
2018-12-16T21:58:34.079Z,29.60
2018-12-16T22:01:01.575Z,27.65
2018-12-16T22:03:29.030Z,28.73
2018-12-16T22:05:56.507Z,26.00
2018-12-16T22:08:24.008Z,24.35
2018-12-16T22:10:51.474Z,24.80
2018-12-16T22:13:18.988Z,24.27
2018-12-16T22:15:46.460Z,24.23
2018-12-16T22:18:14.447Z,24.15
2018-12-16T22:20:41.884Z,24.30
2018-12-16T22:23:09.412Z,24.40
2018-12-16T22:25:36.893Z,24.50
2018-12-16T22:28:04.378Z,25.65
2018-12-16T22:30:31.875Z,25.20
2018-12-16T22:32:59.358Z,24.77
2018-12-16T22:35:26.822Z,25.27
2018-12-16T22:37:54.326Z,24.70
2018-12-16T22:40:22.087Z,24.70
2018-12-16T22:42:49.707Z,24.90
2018-12-16T22:45:17.171Z,24.52
2018-12-16T22:47:44.684Z,24.43
2018-12-16T22:50:12.363Z,24.77
2018-12-16T22:52:39.839Z,25.95
2018-12-16T22:55:07.412Z,24.85
2018-12-16T22:57:34.894Z,24.00
2018-12-16T23:00:02.549Z,24.80
2018-12-16T23:02:30.008Z,24.18
2018-12-16T23:04:57.488Z,25.40
2018-12-16T23:07:24.955Z,25.65
2018-12-16T23:09:52.421Z,26.35
2018-12-16T23:12:19.904Z,25.35
2018-12-16T23:14:47.369Z,25.05
2018-12-16T23:17:14.808Z,24.37
2018-12-16T23:19:44.254Z,25.72
2018-12-16T23:22:11.729Z,28.45
2018-12-16T23:24:39.563Z,28.80
2018-12-16T23:27:07.019Z,28.83
2018-12-16T23:29:34.466Z,28.53
2018-12-16T23:32:01.940Z,28.90
2018-12-16T23:34:29.425Z,28.95
2018-12-16T23:36:56.874Z,30.37
2018-12-16T23:39:24.355Z,28.87
2018-12-16T23:41:51.831Z,28.50
2018-12-16T23:44:19.291Z,27.42
2018-12-16T23:46:46.756Z,27.65
2018-12-16T23:49:14.210Z,25.62
2018-12-16T23:51:41.672Z,27.60
2018-12-16T23:54:09.158Z,28.32
2018-12-16T23:56:36.753Z,28.20
2018-12-16T23:59:04.322Z,27.70
